Flight Track Log - Related Links

Times and Time Zones

All times are in EDT time to prevent confusion due to time zone crossing. See the SKW4632 flight status page for this flight to view local times or setup timezone preferences in your user account.

Time Position Orientation Groundspeed Altitude Reporting Facility
EDT Latitude Longitude Course Direction KTS MPH feet Rate Location/Type
Tue 03:24:20 PM 46.8275 -114.0672 185° South 217 250 6,600  Level Salt Lake Center
Tue 03:25:22 PM 46.7644 -114.0528 171° South 228 262 8,900 1,935 Climbing Salt Lake Center
Tue 03:26:00 PM 46.5625 -113.9556 180° South  Level Estimated
Tue 03:26:24 PM 46.6892 -114.0367 172° South 256 295 10,600  Level Salt Lake Center
Tue 03:27:00 PM 46.4804 -114.0142 206° Southwest  Level FlightAware Approximate
Tue 03:27:26 PM 46.6119 -114.0228 173° South 278 320 12,400  Level Salt Lake Center
Tue 03:28:00 PM 46.3922 -113.9794 180° South  Level Estimated
Tue 03:28:28 PM 46.5267 -114.0575 196° South 309 356 14,100  Level Salt Lake Center
Tue 03:29:30 PM 46.4447 -114.0822 192° South 309 356 15,900 1,742 Climbing Salt Lake Center
Tue 03:30:32 PM 46.3586 -114.0836 181° South 319 367 17,700 1,500 Climbing Salt Lake Center
Tue 03:31:34 PM 46.2708 -114.0814 179° South 317 365 19,000 1,258 Climbing Salt Lake Center
Tue 03:32:36 PM 46.1786 -114.0825 180° South 329 379 20,300 1,355 Climbing Salt Lake Center
Tue 03:33:38 PM 46.0869 -114.0842 181° South 331 381 21,800 1,306 Climbing Salt Lake Center
Tue 03:34:40 PM 45.9750 -114.0853 180° South 335 386 23,000 1,016 Climbing Salt Lake Center
Tue 03:35:42 PM 45.8792 -114.0839 179° South 343 395 23,900 919 Climbing Salt Lake Center
Tue 03:36:44 PM 45.7789 -114.0850 180° South 357 411 24,900 823 Climbing Salt Lake Center
Tue 03:37:46 PM 45.6786 -114.0844 180° South 361 415 25,600 677 Climbing Salt Lake Center
Tue 03:38:48 PM 45.5728 -114.0853 180° South 372 428 26,300 774 Climbing Salt Lake Center
Tue 03:39:50 PM 45.4561 -114.0839 180° South 375 432 27,200 774 Climbing Salt Lake Center
Tue 03:40:52 PM 45.3539 -114.0856 181° South 381 438 27,900 629 Climbing Salt Lake Center
Tue 03:41:54 PM 45.2333 -114.0836 179° South 387 445 28,500 532 Climbing Salt Lake Center
Tue 03:42:56 PM 45.1297 -114.0831 180° South 389 448 29,000 581 Climbing Salt Lake Center
Tue 03:43:58 PM 45.0083 -114.0719 176° South 392 451 29,700 629 Climbing Salt Lake Center
Tue 03:45:00 PM 44.9119 -114.0081 155° Southeast 400 460 30,300 629 Climbing Salt Lake Center
Tue 03:46:02 PM 44.8019 -113.9339 154° Southeast 395 455 31,000 339 Climbing Salt Lake Center
Tue 03:47:04 PM 44.7050 -113.8667 154° Southeast 401 461 31,000  Level Salt Lake Center
Tue 03:48:06 PM 44.5889 -113.7875 154° Southeast 410 472 31,000  Level Salt Lake Center
Tue 03:49:07 PM 44.4861 -113.7172 154° Southeast 422 486 31,000 293 Level Salt Lake Center
Tue 03:50:09 PM 44.3642 -113.6333 154° Southeast 434 499 31,600 484 Climbing Salt Lake Center
Tue 03:51:11 PM 44.2692 -113.5467 147° Southeast 430 495 32,000 194 Climbing Salt Lake Center
Tue 03:52:13 PM 44.1583 -113.4431 146° Southeast 430 495 32,000  Level Salt Lake Center
Tue 03:53:15 PM 44.0631 -113.3492 145° Southeast 435 501 32,000  Level Salt Lake Center
Tue 03:54:17 PM 43.9692 -113.2564 145° Southeast 434 499 32,000  Level Salt Lake Center
Tue 03:55:19 PM 43.8614 -113.1489 144° Southeast 429 494 32,000  Level Salt Lake Center
Tue 03:56:21 PM 43.7589 -113.0950 159° South 415 478 32,000  Level Salt Lake Center
Tue 03:57:23 PM 43.6375 -113.0611 169° South 403 464 32,000  Level Salt Lake Center
Tue 03:58:25 PM 43.5292 -113.0317 169° South 412 474 32,000  Level Salt Lake Center
Tue 03:59:27 PM 43.4019 -112.9953 168° South 418 481 32,000  Level Salt Lake Center
Tue 04:00:29 PM 43.2936 -112.9650 169° South 417 480 32,000  Level Salt Lake Center
Tue 04:01:31 PM 43.1644 -112.9286 168° South 424 488 32,000 -48 Level Salt Lake Center
Tue 04:02:33 PM 43.0519 -112.8983 169° South 429 494 31,900 -387 Descending Salt Lake Center
Tue 04:03:35 PM 42.9228 -112.8406 162° South 439 505 31,200 -629 Descending Salt Lake Center
Tue 04:04:37 PM 42.8125 -112.7856 160° South 441 507 30,600 -581 Descending Salt Lake Center
Tue 04:05:39 PM 42.6883 -112.7222 159° South 441 507 30,000 -293 Descending Salt Lake Center
Tue 04:06:40 PM 42.5758 -112.6697 161° South 432 497 30,000  Level Salt Lake Center
Tue 04:07:42 PM 42.4636 -112.6375 168° South 416 479 30,000  Level Salt Lake Center
Tue 04:08:44 PM 42.3519 -112.6175 172° South 408 470 30,000  Level Salt Lake Center
Tue 04:09:46 PM 42.2414 -112.5986 173° South 403 464 30,000 -726 Level Salt Lake Center
Tue 04:10:48 PM 42.1083 -112.5764 173° South 404 465 28,500 -1,935 Descending Salt Lake Center
Tue 04:11:50 PM 41.9986 -112.5606 174° South 399 459 26,000 -2,468 Descending Salt Lake Center
Tue 04:12:52 PM 41.8900 -112.5444 174° South 395 455 23,400 -2,516 Descending Salt Lake Center
Tue 04:13:54 PM 41.7831 -112.5283 174° South 392 451 20,800 -2,586 Descending Salt Lake Center
Tue 04:14:48 PM 41.6886 -112.5047 169° South 372 428 18,400 -2,231 Descending Salt Lake Center
Tue 04:15:55 PM 41.5719 -112.4894 174° South 366 421 16,300 -1,078 Descending Salt Lake Center
Tue 04:16:56 PM 41.4889 -112.4144 146° Southeast 362 417 16,100 -99 Descending Salt Lake Center
Tue 04:17:56 PM 41.4128 -112.3317 141° Southeast 358 412 16,100  Level Salt Lake Center
Tue 04:18:51 PM 41.3417 -112.2528 140° Southeast 360 414 16,100 -259 Level Salt Lake Center
Tue 04:19:52 PM 41.2636 -112.1708 142° Southeast 356 410 15,600 -1,131 Descending Salt Lake Center
Tue 04:20:53 PM 41.1875 -112.1111 149° Southeast 324 373 13,800 -1,835 Descending Salt Lake Center
Tue 04:21:53 PM 41.1119 -112.0544 151° Southeast 313 360 11,900 -1,289 Descending Salt Lake Center
Tue 04:22:54 PM 41.0444 -112.0061 152° Southeast 269 310 11,200 -984 Descending Salt Lake Center
Tue 04:23:55 PM 40.9800 -111.9969 174° South 212 244 9,900 -1,641 Descending Salt Lake Center
Tue 04:25:02 PM 40.9231 -111.9908 175° South 191 220 7,700 -1,875 Descending Salt Lake Center
Tue 04:26:03 PM 40.8722 -111.9853 175° South 185 213 5,900 -1,488 Descending Salt Lake Center
Tue 04:27:03 PM 40.8283 -111.9806 175° South 161 185 4,700 -1,200 Descending Salt Lake Center

Login

Don't have an account? Register now (free) for customized features, flight alerts, and more!